Lucknow, India

7:59 PM IST on August 30, 2015 (GMT +0530)
Lucknow | | Change Station
CLOSE
Current Station
Airport
Location: Lucknow,
Elevation: 420 ft
Nearby Weather Stations

Elev 420 ft 26.76 °N, 80.89 °E | Updated 29 minutes ago

Haze
Haze
90 °F
Feels Like 111 °F
N
0
Wind Variable Wind from North

Today
High -- | Low -- °F
--% Chance of Precip.
Yesterday
High -- | Low -- °F
Precip. -- in
5:44 AM 6:29 PM
Full, 99% visible
Pressure 29.53 in
Visibility 3.1 miles
Clouds Few 2000 ft
Scattered Clouds 2500 ft
Heat Index 111 °F
Dew Point 82 °F
Humidity 79%
Rainfall 0.00 in
Snow Depth Not available.
UV 0 out of 12
Pollen Not available.
Air Quality Not available.
Flu Activity Not available.
METAR VILK 301400Z 00000KT 5000 HZ FEW020 SCT025 32/28 Q1000 NOSIG
Pressure 29.53 in
Visibility 3.1 miles
Clouds Few 2000 ft
Scattered Clouds 2500 ft
Heat Index 111 °F
Dew Point 82 °F
Humidity 79%
Rainfall 0.00 in
Snow Depth Not available.
UV 0 out of 12
Pollen Not available.
Air Quality Not available.
Flu Activity Not available.
METAR VILK 301400Z 00000KT 5000 HZ FEW020 SCT025 32/28 Q1000 NOSIG

10-Day Weather Forecast

×

Almanac

Astronomy

Aug. 30, 2015 Rise Set
Actual Time
Civil Twilight
Nautical Twilight
Astronomical Twilight
Moon
Length of Visible Light
Length of Day
Tomorrow will be .
, % of the Moon is Illuminated

Today's Extremes

Country Highs Country Lows

Community

WunderPhotos

Upload Photos

1,850,974 photos uploaded!

WunderBlogs® & News

Nearby

Air Quality

  Air Quality AQ Index Pollutant
Not available.

Snow Depth

Station Depth Elevation

Earthquake Activity

City Distance Mag. Time & Date
Minimum magnitude displayed is 2.5.

Coastal Water Temperatures

Place Temperature

Stations

Nearby Weather Stations

Station Location Temp. Windchill Dew Point Humidity Wind Precip. Elev Updated Type